sensor_id;sensor_type;location;lat;lon;timestamp;temperature;humidity
48589;DHT22;34369;51.174;6.738;2023-10-09T00:01:08;13.80;72.10
48589;DHT22;34369;51.174;6.738;2023-10-09T00:03:49;13.90;72.20
48589;DHT22;34369;51.174;6.738;2023-10-09T00:06:25;13.90;72.20
48589;DHT22;34369;51.174;6.738;2023-10-09T00:09:08;13.90;72.10
48589;DHT22;34369;51.174;6.738;2023-10-09T00:11:49;13.90;72.00
48589;DHT22;34369;51.174;6.738;2023-10-09T00:14:30;13.90;71.80
48589;DHT22;34369;51.174;6.738;2023-10-09T00:17:06;13.90;71.90
48589;DHT22;34369;51.174;6.738;2023-10-09T00:19:50;13.90;71.70
48589;DHT22;34369;51.174;6.738;2023-10-09T00:22:30;13.80;71.70
48589;DHT22;34369;51.174;6.738;2023-10-09T00:25:09;13.80;71.50
48589;DHT22;34369;51.174;6.738;2023-10-09T00:27:44;13.80;71.50
48589;DHT22;34369;51.174;6.738;2023-10-09T00:30:19;13.70;71.40
48589;DHT22;34369;51.174;6.738;2023-10-09T00:32:53;13.70;71.40
48589;DHT22;34369;51.174;6.738;2023-10-09T00:35:32;13.70;71.30
48589;DHT22;34369;51.174;6.738;2023-10-09T00:38:12;13.70;71.20
48589;DHT22;34369;51.174;6.738;2023-10-09T00:40:54;13.60;71.00
48589;DHT22;34369;51.174;6.738;2023-10-09T00:43:41;13.60;70.90
48589;DHT22;34369;51.174;6.738;2023-10-09T00:46:17;13.50;71.00
48589;DHT22;34369;51.174;6.738;2023-10-09T00:48:57;13.50;71.10
48589;DHT22;34369;51.174;6.738;2023-10-09T00:51:36;13.50;71.50
48589;DHT22;34369;51.174;6.738;2023-10-09T00:54:13;13.50;71.60
48589;DHT22;34369;51.174;6.738;2023-10-09T00:56:47;13.50;71.70
48589;DHT22;34369;51.174;6.738;2023-10-09T00:59:29;13.50;71.80
48589;DHT22;34369;51.174;6.738;2023-10-09T01:02:05;13.40;71.80
48589;DHT22;34369;51.174;6.738;2023-10-09T01:04:39;13.50;71.90
48589;DHT22;34369;51.174;6.738;2023-10-09T01:07:16;13.50;72.20
48589;DHT22;34369;51.174;6.738;2023-10-09T01:09:57;13.50;72.30
48589;DHT22;34369;51.174;6.738;2023-10-09T01:12:41;13.50;72.30
48589;DHT22;34369;51.174;6.738;2023-10-09T01:15:17;13.50;72.20
48589;DHT22;34369;51.174;6.738;2023-10-09T01:18:07;13.50;72.10
48589;DHT22;34369;51.174;6.738;2023-10-09T01:20:40;13.50;72.10
48589;DHT22;34369;51.174;6.738;2023-10-09T01:23:18;13.50;72.00
48589;DHT22;34369;51.174;6.738;2023-10-09T01:25:54;13.50;71.90
48589;DHT22;34369;51.174;6.738;2023-10-09T01:28:28;13.50;72.00
48589;DHT22;34369;51.174;6.738;2023-10-09T01:31:05;13.50;72.10
48589;DHT22;34369;51.174;6.738;2023-10-09T01:33:40;13.50;72.20
48589;DHT22;34369;51.174;6.738;2023-10-09T01:36:13;13.50;72.20
48589;DHT22;34369;51.174;6.738;2023-10-09T01:38:49;13.50;72.20
48589;DHT22;34369;51.174;6.738;2023-10-09T01:41:25;13.60;72.30
48589;DHT22;34369;51.174;6.738;2023-10-09T01:44:05;13.60;72.20
48589;DHT22;34369;51.174;6.738;2023-10-09T01:46:43;13.60;72.20
48589;DHT22;34369;51.174;6.738;2023-10-09T01:49:16;13.60;72.20
48589;DHT22;34369;51.174;6.738;2023-10-09T01:51:52;13.60;72.10
48589;DHT22;34369;51.174;6.738;2023-10-09T01:54:28;13.60;72.10
48589;DHT22;34369;51.174;6.738;2023-10-09T01:57:11;13.60;72.10
48589;DHT22;34369;51.174;6.738;2023-10-09T01:59:45;13.60;72.00
48589;DHT22;34369;51.174;6.738;2023-10-09T02:02:21;13.60;71.90
48589;DHT22;34369;51.174;6.738;2023-10-09T02:04:59;13.70;71.90
48589;DHT22;34369;51.174;6.738;2023-10-09T02:07:40;13.70;71.90
48589;DHT22;34369;51.174;6.738;2023-10-09T02:10:17;13.70;71.90
48589;DHT22;34369;51.174;6.738;2023-10-09T02:12:57;13.70;71.80
48589;DHT22;34369;51.174;6.738;2023-10-09T02:15:38;13.70;71.90
48589;DHT22;34369;51.174;6.738;2023-10-09T02:18:22;13.70;71.70
48589;DHT22;34369;51.174;6.738;2023-10-09T02:21:10;13.70;71.60
48589;DHT22;34369;51.174;6.738;2023-10-09T02:23:44;13.70;71.50
48589;DHT22;34369;51.174;6.738;2023-10-09T02:26:23;13.70;71.60
48589;DHT22;34369;51.174;6.738;2023-10-09T02:28:57;13.70;71.50
48589;DHT22;34369;51.174;6.738;2023-10-09T02:31:35;13.70;71.40
48589;DHT22;34369;51.174;6.738;2023-10-09T02:34:11;13.70;71.40
48589;DHT22;34369;51.174;6.738;2023-10-09T02:36:46;13.70;71.30
48589;DHT22;34369;51.174;6.738;2023-10-09T02:39:28;13.70;71.40
48589;DHT22;34369;51.174;6.738;2023-10-09T02:42:09;13.70;71.40
48589;DHT22;34369;51.174;6.738;2023-10-09T02:44:54;13.60;71.20
48589;DHT22;34369;51.174;6.738;2023-10-09T02:47:30;13.60;71.40
48589;DHT22;34369;51.174;6.738;2023-10-09T02:50:10;13.60;71.50
48589;DHT22;34369;51.174;6.738;2023-10-09T02:52:50;13.60;71.50
48589;DHT22;34369;51.174;6.738;2023-10-09T02:55:27;13.60;71.40
48589;DHT22;34369;51.174;6.738;2023-10-09T02:58:03;13.60;71.50
48589;DHT22;34369;51.174;6.738;2023-10-09T03:00:38;13.60;71.50
48589;DHT22;34369;51.174;6.738;2023-10-09T03:03:14;13.60;71.60
48589;DHT22;34369;51.174;6.738;2023-10-09T03:05:52;13.60;71.90
48589;DHT22;34369;51.174;6.738;2023-10-09T03:08:25;13.60;71.40
48589;DHT22;34369;51.174;6.738;2023-10-09T03:10:59;13.60;71.40
48589;DHT22;34369;51.174;6.738;2023-10-09T03:13:34;13.60;71.50
48589;DHT22;34369;51.174;6.738;2023-10-09T03:16:07;13.60;71.70
48589;DHT22;34369;51.174;6.738;2023-10-09T03:18:45;13.60;71.80
48589;DHT22;34369;51.174;6.738;2023-10-09T03:21:20;13.60;71.80
48589;DHT22;34369;51.174;6.738;2023-10-09T03:23:54;13.60;72.00
48589;DHT22;34369;51.174;6.738;2023-10-09T03:26:28;13.60;72.10
48589;DHT22;34369;51.174;6.738;2023-10-09T03:29:05;13.60;72.10
48589;DHT22;34369;51.174;6.738;2023-10-09T03:31:41;13.60;72.10
48589;DHT22;34369;51.174;6.738;2023-10-09T03:34:15;13.60;72.20
48589;DHT22;34369;51.174;6.738;2023-10-09T03:36:49;13.60;72.20
48589;DHT22;34369;51.174;6.738;2023-10-09T03:39:34;13.60;72.30
48589;DHT22;34369;51.174;6.738;2023-10-09T03:42:12;13.60;72.20
48589;DHT22;34369;51.174;6.738;2023-10-09T03:44:52;13.60;72.30
48589;DHT22;34369;51.174;6.738;2023-10-09T03:47:28;13.60;72.40
48589;DHT22;34369;51.174;6.738;2023-10-09T03:50:02;13.70;72.40
48589;DHT22;34369;51.174;6.738;2023-10-09T03:52:55;13.70;72.50
48589;DHT22;34369;51.174;6.738;2023-10-09T03:55:29;13.70;72.50
48589;DHT22;34369;51.174;6.738;2023-10-09T03:58:03;13.70;72.70
48589;DHT22;34369;51.174;6.738;2023-10-09T04:00:39;13.70;72.70
48589;DHT22;34369;51.174;6.738;2023-10-09T04:03:16;13.80;72.90
48589;DHT22;34369;51.174;6.738;2023-10-09T04:05:51;13.80;73.00
48589;DHT22;34369;51.174;6.738;2023-10-09T04:08:26;13.80;73.10
48589;DHT22;34369;51.174;6.738;2023-10-09T04:11:01;13.90;73.20
48589;DHT22;34369;51.174;6.738;2023-10-09T04:13:46;13.90;73.30
48589;DHT22;34369;51.174;6.738;2023-10-09T04:16:22;13.90;73.40
48589;DHT22;34369;51.174;6.738;2023-10-09T04:19:22;13.90;73.50
48589;DHT22;34369;51.174;6.738;2023-10-09T04:21:56;14.00;73.40
48589;DHT22;34369;51.174;6.738;2023-10-09T04:24:29;14.00;73.30
48589;DHT22;34369;51.174;6.738;2023-10-09T04:27:12;14.00;73.30
48589;DHT22;34369;51.174;6.738;2023-10-09T04:29:49;14.10;73.20
48589;DHT22;34369;51.174;6.738;2023-10-09T04:32:27;14.10;73.20
48589;DHT22;34369;51.174;6.738;2023-10-09T04:35:03;14.10;73.20
48589;DHT22;34369;51.174;6.738;2023-10-09T04:38:05;14.20;73.20
48589;DHT22;34369;51.174;6.738;2023-10-09T04:40:39;14.20;73.20
48589;DHT22;34369;51.174;6.738;2023-10-09T04:43:19;14.20;73.40
48589;DHT22;34369;51.174;6.738;2023-10-09T04:45:52;14.20;72.80
48589;DHT22;34369;51.174;6.738;2023-10-09T04:48:39;14.20;72.90
48589;DHT22;34369;51.174;6.738;2023-10-09T04:51:16;14.30;73.10
48589;DHT22;34369;51.174;6.738;2023-10-09T04:53:53;14.30;73.10
48589;DHT22;34369;51.174;6.738;2023-10-09T04:56:43;14.30;73.30
48589;DHT22;34369;51.174;6.738;2023-10-09T04:59:25;14.40;73.40
48589;DHT22;34369;51.174;6.738;2023-10-09T05:01:59;14.40;73.40
48589;DHT22;34369;51.174;6.738;2023-10-09T05:04:36;14.40;73.40
48589;DHT22;34369;51.174;6.738;2023-10-09T05:07:12;14.40;73.50
48589;DHT22;34369;51.174;6.738;2023-10-09T05:10:20;14.50;73.40
48589;DHT22;34369;51.174;6.738;2023-10-09T05:12:56;14.50;73.40
48589;DHT22;34369;51.174;6.738;2023-10-09T05:15:30;14.50;73.30
48589;DHT22;34369;51.174;6.738;2023-10-09T05:18:06;14.60;73.40
48589;DHT22;34369;51.174;6.738;2023-10-09T05:20:47;14.70;73.30
48589;DHT22;34369;51.174;6.738;2023-10-09T05:23:48;14.70;73.20
48589;DHT22;34369;51.174;6.738;2023-10-09T05:26:44;14.70;73.20
48589;DHT22;34369;51.174;6.738;2023-10-09T05:29:24;14.70;73.10
48589;DHT22;34369;51.174;6.738;2023-10-09T05:32:19;14.80;73.00
48589;DHT22;34369;51.174;6.738;2023-10-09T05:35:00;14.90;72.80
48589;DHT22;34369;51.174;6.738;2023-10-09T05:37:38;14.90;72.70
48589;DHT22;34369;51.174;6.738;2023-10-09T05:40:18;15.00;72.70
48589;DHT22;34369;51.174;6.738;2023-10-09T05:42:59;15.00;72.60
48589;DHT22;34369;51.174;6.738;2023-10-09T05:45:33;15.00;72.40
48589;DHT22;34369;51.174;6.738;2023-10-09T05:48:32;15.00;72.40
48589;DHT22;34369;51.174;6.738;2023-10-09T05:51:36;15.10;72.20
48589;DHT22;34369;51.174;6.738;2023-10-09T05:54:14;15.10;71.90
48589;DHT22;34369;51.174;6.738;2023-10-09T05:57:10;15.10;71.80
48589;DHT22;34369;51.174;6.738;2023-10-09T06:00:01;15.10;71.80
48589;DHT22;34369;51.174;6.738;2023-10-09T06:02:53;15.10;71.80
48589;DHT22;34369;51.174;6.738;2023-10-09T06:05:43;15.10;71.80
48589;DHT22;34369;51.174;6.738;2023-10-09T06:08:34;15.20;71.70
48589;DHT22;34369;51.174;6.738;2023-10-09T06:14:12;15.30;71.50
48589;DHT22;34369;51.174;6.738;2023-10-09T06:16:47;15.30;71.40
48589;DHT22;34369;51.174;6.738;2023-10-09T06:19:30;15.30;71.40
48589;DHT22;34369;51.174;6.738;2023-10-09T06:22:13;15.30;71.40
48589;DHT22;34369;51.174;6.738;2023-10-09T06:25:22;15.30;71.20
48589;DHT22;34369;51.174;6.738;2023-10-09T06:28:03;15.40;71.00
48589;DHT22;34369;51.174;6.738;2023-10-09T06:30:36;15.50;70.90
48589;DHT22;34369;51.174;6.738;2023-10-09T06:33:15;15.50;70.90
48589;DHT22;34369;51.174;6.738;2023-10-09T06:36:00;15.50;70.90
48589;DHT22;34369;51.174;6.738;2023-10-09T06:38:38;15.60;70.80
48589;DHT22;34369;51.174;6.738;2023-10-09T06:41:24;15.60;70.70
48589;DHT22;34369;51.174;6.738;2023-10-09T06:44:05;15.60;70.70
48589;DHT22;34369;51.174;6.738;2023-10-09T06:46:37;15.70;70.70
48589;DHT22;34369;51.174;6.738;2023-10-09T06:49:14;15.80;70.70
48589;DHT22;34369;51.174;6.738;2023-10-09T06:52:06;15.80;70.50
48589;DHT22;34369;51.174;6.738;2023-10-09T06:54:45;15.80;70.30
48589;DHT22;34369;51.174;6.738;2023-10-09T06:57:22;15.90;70.30
48589;DHT22;34369;51.174;6.738;2023-10-09T07:00:17;16.00;70.20
48589;DHT22;34369;51.174;6.738;2023-10-09T07:03:09;16.00;70.10
48589;DHT22;34369;51.174;6.738;2023-10-09T07:05:42;16.00;70.10
48589;DHT22;34369;51.174;6.738;2023-10-09T07:08:28;16.00;69.90
48589;DHT22;34369;51.174;6.738;2023-10-09T07:11:07;16.10;69.90
48589;DHT22;34369;51.174;6.738;2023-10-09T07:14:20;16.10;69.70
48589;DHT22;34369;51.174;6.738;2023-10-09T07:17:24;16.10;69.60
48589;DHT22;34369;51.174;6.738;2023-10-09T07:20:14;16.20;69.50
48589;DHT22;34369;51.174;6.738;2023-10-09T07:23:07;16.20;69.50
48589;DHT22;34369;51.174;6.738;2023-10-09T07:25:45;16.20;69.60
48589;DHT22;34369;51.174;6.738;2023-10-09T07:28:31;16.30;69.50
48589;DHT22;34369;51.174;6.738;2023-10-09T07:31:19;16.30;69.50
48589;DHT22;34369;51.174;6.738;2023-10-09T07:34:00;16.40;69.50
48589;DHT22;34369;51.174;6.738;2023-10-09T07:36:37;16.40;69.50
48589;DHT22;34369;51.174;6.738;2023-10-09T07:39:09;16.50;69.20
48589;DHT22;34369;51.174;6.738;2023-10-09T07:41:48;16.60;69.10
48589;DHT22;34369;51.174;6.738;2023-10-09T07:44:45;16.60;69.00
48589;DHT22;34369;51.174;6.738;2023-10-09T07:47:24;16.70;68.80
48589;DHT22;34369;51.174;6.738;2023-10-09T07:50:16;16.70;68.70
48589;DHT22;34369;51.174;6.738;2023-10-09T07:52:51;16.80;68.40
48589;DHT22;34369;51.174;6.738;2023-10-09T07:55:44;16.80;68.50
48589;DHT22;34369;51.174;6.738;2023-10-09T07:58:24;16.80;68.20
48589;DHT22;34369;51.174;6.738;2023-10-09T08:00:57;16.90;68.00
48589;DHT22;34369;51.174;6.738;2023-10-09T08:03:39;16.90;68.00
48589;DHT22;34369;51.174;6.738;2023-10-09T08:06:12;17.00;67.80
48589;DHT22;34369;51.174;6.738;2023-10-09T08:09:01;17.00;67.80
48589;DHT22;34369;51.174;6.738;2023-10-09T08:11:48;17.00;67.80
48589;DHT22;34369;51.174;6.738;2023-10-09T08:14:44;17.00;67.80
48589;DHT22;34369;51.174;6.738;2023-10-09T08:17:16;17.00;67.70
48589;DHT22;34369;51.174;6.738;2023-10-09T08:19:55;17.10;67.50
48589;DHT22;34369;51.174;6.738;2023-10-09T08:22:30;17.10;67.50
48589;DHT22;34369;51.174;6.738;2023-10-09T08:25:13;17.20;67.30
48589;DHT22;34369;51.174;6.738;2023-10-09T08:28:00;17.20;67.40
48589;DHT22;34369;51.174;6.738;2023-10-09T08:30:52;17.20;67.20
48589;DHT22;34369;51.174;6.738;2023-10-09T08:33:34;17.20;67.30
48589;DHT22;34369;51.174;6.738;2023-10-09T08:36:13;17.30;67.40
48589;DHT22;34369;51.174;6.738;2023-10-09T08:38:53;17.40;67.40
48589;DHT22;34369;51.174;6.738;2023-10-09T08:41:28;17.40;67.20
48589;DHT22;34369;51.174;6.738;2023-10-09T08:44:01;17.50;67.10
48589;DHT22;34369;51.174;6.738;2023-10-09T08:46:34;17.50;66.90
48589;DHT22;34369;51.174;6.738;2023-10-09T08:49:08;17.60;66.70
48589;DHT22;34369;51.174;6.738;2023-10-09T08:51:42;17.60;66.70
48589;DHT22;34369;51.174;6.738;2023-10-09T08:54:16;17.70;66.40
48589;DHT22;34369;51.174;6.738;2023-10-09T08:56:48;17.80;66.30
48589;DHT22;34369;51.174;6.738;2023-10-09T08:59:25;17.80;66.40
48589;DHT22;34369;51.174;6.738;2023-10-09T09:02:02;17.80;66.10
48589;DHT22;34369;51.174;6.738;2023-10-09T09:04:36;17.90;66.10
48589;DHT22;34369;51.174;6.738;2023-10-09T09:07:24;17.90;66.00
48589;DHT22;34369;51.174;6.738;2023-10-09T09:09:59;18.00;65.90
48589;DHT22;34369;51.174;6.738;2023-10-09T09:12:38;18.00;65.90
48589;DHT22;34369;51.174;6.738;2023-10-09T09:15:14;18.00;65.90
48589;DHT22;34369;51.174;6.738;2023-10-09T09:17:52;18.00;65.70
48589;DHT22;34369;51.174;6.738;2023-10-09T09:20:36;18.10;65.60
48589;DHT22;34369;51.174;6.738;2023-10-09T09:23:12;18.20;65.40
48589;DHT22;34369;51.174;6.738;2023-10-09T09:25:46;18.20;65.20
48589;DHT22;34369;51.174;6.738;2023-10-09T09:28:29;18.20;65.40
48589;DHT22;34369;51.174;6.738;2023-10-09T09:31:09;18.30;65.20
48589;DHT22;34369;51.174;6.738;2023-10-09T09:33:55;18.30;65.10
48589;DHT22;34369;51.174;6.738;2023-10-09T09:36:34;18.40;65.10
48589;DHT22;34369;51.174;6.738;2023-10-09T09:39:07;18.50;65.40
48589;DHT22;34369;51.174;6.738;2023-10-09T09:41:49;18.60;65.60
48589;DHT22;34369;51.174;6.738;2023-10-09T09:44:22;18.80;65.40
48589;DHT22;34369;51.174;6.738;2023-10-09T09:47:01;18.90;65.10
48589;DHT22;34369;51.174;6.738;2023-10-09T09:49:38;19.00;64.60
48589;DHT22;34369;51.174;6.738;2023-10-09T09:52:10;19.10;64.70
48589;DHT22;34369;51.174;6.738;2023-10-09T09:54:44;19.20;64.00
48589;DHT22;34369;51.174;6.738;2023-10-09T09:57:23;19.30;63.90
48589;DHT22;34369;51.174;6.738;2023-10-09T09:59:57;19.40;63.30
48589;DHT22;34369;51.174;6.738;2023-10-09T10:02:36;19.40;63.00
48589;DHT22;34369;51.174;6.738;2023-10-09T10:05:09;19.50;62.50
48589;DHT22;34369;51.174;6.738;2023-10-09T10:07:42;19.60;62.60
48589;DHT22;34369;51.174;6.738;2023-10-09T10:10:38;19.60;62.10
48589;DHT22;34369;51.174;6.738;2023-10-09T10:16:27;19.70;61.60
48589;DHT22;34369;51.174;6.738;2023-10-09T10:19:14;19.80;61.70
48589;DHT22;34369;51.174;6.738;2023-10-09T10:22:25;19.90;61.30
48589;DHT22;34369;51.174;6.738;2023-10-09T10:25:01;20.00;60.80
48589;DHT22;34369;51.174;6.738;2023-10-09T10:27:41;20.00;60.90
48589;DHT22;34369;51.174;6.738;2023-10-09T10:30:29;20.00;60.70
48589;DHT22;34369;51.174;6.738;2023-10-09T10:33:07;20.10;60.20
48589;DHT22;34369;51.174;6.738;2023-10-09T10:35:46;20.10;60.50
48589;DHT22;34369;51.174;6.738;2023-10-09T10:38:30;20.20;60.20
48589;DHT22;34369;51.174;6.738;2023-10-09T10:41:15;20.20;60.10
48589;DHT22;34369;51.174;6.738;2023-10-09T10:43:54;20.20;59.70
48589;DHT22;34369;51.174;6.738;2023-10-09T10:46:29;20.30;59.60
48589;DHT22;34369;51.174;6.738;2023-10-09T10:49:12;20.30;59.60
48589;DHT22;34369;51.174;6.738;2023-10-09T10:51:51;20.30;59.60
48589;DHT22;34369;51.174;6.738;2023-10-09T10:54:31;20.30;59.40
48589;DHT22;34369;51.174;6.738;2023-10-09T10:57:36;20.30;59.90
48589;DHT22;34369;51.174;6.738;2023-10-09T11:00:28;20.40;60.10
48589;DHT22;34369;51.174;6.738;2023-10-09T11:03:18;20.40;59.70
48589;DHT22;34369;51.174;6.738;2023-10-09T11:06:01;20.50;59.20
48589;DHT22;34369;51.174;6.738;2023-10-09T11:08:46;20.60;58.70
48589;DHT22;34369;51.174;6.738;2023-10-09T11:11:24;20.60;58.90
48589;DHT22;34369;51.174;6.738;2023-10-09T11:14:11;20.60;58.70
48589;DHT22;34369;51.174;6.738;2023-10-09T11:16:46;20.60;58.90
48589;DHT22;34369;51.174;6.738;2023-10-09T11:19:21;20.70;59.10
48589;DHT22;34369;51.174;6.738;2023-10-09T11:22:10;20.70;58.80
48589;DHT22;34369;51.174;6.738;2023-10-09T11:25:07;20.80;58.80
48589;DHT22;34369;51.174;6.738;2023-10-09T11:27:42;20.80;58.40
48589;DHT22;34369;51.174;6.738;2023-10-09T11:30:31;20.90;58.00
48589;DHT22;34369;51.174;6.738;2023-10-09T11:33:05;20.90;57.30
48589;DHT22;34369;51.174;6.738;2023-10-09T11:35:54;20.90;58.10
48589;DHT22;34369;51.174;6.738;2023-10-09T11:38:35;21.00;58.00
48589;DHT22;34369;51.174;6.738;2023-10-09T11:41:14;21.00;57.20
48589;DHT22;34369;51.174;6.738;2023-10-09T11:43:53;21.10;57.70
48589;DHT22;34369;51.174;6.738;2023-10-09T11:46:27;21.10;57.90
48589;DHT22;34369;51.174;6.738;2023-10-09T11:49:12;21.10;57.50
48589;DHT22;34369;51.174;6.738;2023-10-09T11:52:06;21.30;57.30
48589;DHT22;34369;51.174;6.738;2023-10-09T11:54:55;21.30;56.80
48589;DHT22;34369;51.174;6.738;2023-10-09T11:57:28;21.40;56.80
48589;DHT22;34369;51.174;6.738;2023-10-09T12:00:02;21.40;56.40
48589;DHT22;34369;51.174;6.738;2023-10-09T12:02:56;21.40;56.40
48589;DHT22;34369;51.174;6.738;2023-10-09T12:05:36;21.50;56.40
48589;DHT22;34369;51.174;6.738;2023-10-09T12:08:13;21.50;56.40
48589;DHT22;34369;51.174;6.738;2023-10-09T12:10:46;21.50;56.00
48589;DHT22;34369;51.174;6.738;2023-10-09T12:13:18;21.50;56.20
48589;DHT22;34369;51.174;6.738;2023-10-09T12:15:53;21.60;55.90
48589;DHT22;34369;51.174;6.738;2023-10-09T12:18:25;21.70;55.70
48589;DHT22;34369;51.174;6.738;2023-10-09T12:21:00;21.70;55.60
48589;DHT22;34369;51.174;6.738;2023-10-09T12:23:34;21.70;55.60
48589;DHT22;34369;51.174;6.738;2023-10-09T12:26:11;21.70;55.20
48589;DHT22;34369;51.174;6.738;2023-10-09T12:28:45;21.70;55.40
48589;DHT22;34369;51.174;6.738;2023-10-09T12:31:20;21.80;55.50
48589;DHT22;34369;51.174;6.738;2023-10-09T12:33:52;21.80;55.50
48589;DHT22;34369;51.174;6.738;2023-10-09T12:36:28;21.90;55.50
48589;DHT22;34369;51.174;6.738;2023-10-09T12:39:01;21.80;54.70
48589;DHT22;34369;51.174;6.738;2023-10-09T12:41:38;21.90;54.60
48589;DHT22;34369;51.174;6.738;2023-10-09T12:44:27;21.80;54.80
48589;DHT22;34369;51.174;6.738;2023-10-09T12:46:58;21.80;54.60
48589;DHT22;34369;51.174;6.738;2023-10-09T12:49:35;21.70;55.00
48589;DHT22;34369;51.174;6.738;2023-10-09T12:52:10;21.70;54.80
48589;DHT22;34369;51.174;6.738;2023-10-09T12:54:45;21.70;54.70
48589;DHT22;34369;51.174;6.738;2023-10-09T12:57:19;21.70;55.10
48589;DHT22;34369;51.174;6.738;2023-10-09T12:59:53;21.70;55.20
48589;DHT22;34369;51.174;6.738;2023-10-09T13:02:25;21.60;55.60
48589;DHT22;34369;51.174;6.738;2023-10-09T13:05:00;21.60;55.90
48589;DHT22;34369;51.174;6.738;2023-10-09T13:07:36;21.70;55.40
48589;DHT22;34369;51.174;6.738;2023-10-09T13:10:09;21.70;55.30
48589;DHT22;34369;51.174;6.738;2023-10-09T13:12:42;21.70;55.40
48589;DHT22;34369;51.174;6.738;2023-10-09T13:15:15;21.70;55.40
48589;DHT22;34369;51.174;6.738;2023-10-09T13:17:51;21.70;55.20
48589;DHT22;34369;51.174;6.738;2023-10-09T13:20:26;21.70;55.30
48589;DHT22;34369;51.174;6.738;2023-10-09T13:23:01;21.70;55.20
48589;DHT22;34369;51.174;6.738;2023-10-09T13:25:33;21.70;55.50
48589;DHT22;34369;51.174;6.738;2023-10-09T13:28:10;21.60;55.20
48589;DHT22;34369;51.174;6.738;2023-10-09T13:30:42;21.70;55.70
48589;DHT22;34369;51.174;6.738;2023-10-09T13:33:19;21.70;55.60
48589;DHT22;34369;51.174;6.738;2023-10-09T13:35:55;21.70;55.60
48589;DHT22;34369;51.174;6.738;2023-10-09T13:38:28;21.70;55.50
48589;DHT22;34369;51.174;6.738;2023-10-09T13:41:00;21.70;55.70
48589;DHT22;34369;51.174;6.738;2023-10-09T13:43:34;21.70;56.20
48589;DHT22;34369;51.174;6.738;2023-10-09T13:46:06;21.70;56.30
48589;DHT22;34369;51.174;6.738;2023-10-09T13:48:40;21.80;56.20
48589;DHT22;34369;51.174;6.738;2023-10-09T13:51:16;21.90;56.30
48589;DHT22;34369;51.174;6.738;2023-10-09T13:53:50;22.10;56.00
48589;DHT22;34369;51.174;6.738;2023-10-09T13:56:23;22.20;55.80
48589;DHT22;34369;51.174;6.738;2023-10-09T13:58:57;22.40;55.30
48589;DHT22;34369;51.174;6.738;2023-10-09T14:01:31;22.50;55.00
48589;DHT22;34369;51.174;6.738;2023-10-09T14:04:05;22.50;54.80
48589;DHT22;34369;51.174;6.738;2023-10-09T14:06:37;22.50;54.70
48589;DHT22;34369;51.174;6.738;2023-10-09T14:09:16;22.60;54.70
48589;DHT22;34369;51.174;6.738;2023-10-09T14:12:01;22.70;54.30
48589;DHT22;34369;51.174;6.738;2023-10-09T14:14:39;22.70;54.40
48589;DHT22;34369;51.174;6.738;2023-10-09T14:17:19;22.80;54.50
48589;DHT22;34369;51.174;6.738;2023-10-09T14:19:55;22.90;54.30
48589;DHT22;34369;51.174;6.738;2023-10-09T14:22:47;23.00;54.20
48589;DHT22;34369;51.174;6.738;2023-10-09T14:25:24;23.10;54.00
48589;DHT22;34369;51.174;6.738;2023-10-09T14:28:00;23.10;53.90
48589;DHT22;34369;51.174;6.738;2023-10-09T14:30:32;23.20;53.90
48589;DHT22;34369;51.174;6.738;2023-10-09T14:33:12;23.30;53.40
48589;DHT22;34369;51.174;6.738;2023-10-09T14:35:44;23.30;53.50
48589;DHT22;34369;51.174;6.738;2023-10-09T14:38:16;23.30;53.20
48589;DHT22;34369;51.174;6.738;2023-10-09T14:40:53;23.30;53.10
48589;DHT22;34369;51.174;6.738;2023-10-09T14:43:30;23.30;53.20
48589;DHT22;34369;51.174;6.738;2023-10-09T14:46:03;23.30;53.10
48589;DHT22;34369;51.174;6.738;2023-10-09T14:48:41;23.30;52.80
48589;DHT22;34369;51.174;6.738;2023-10-09T14:51:16;23.30;52.70
48589;DHT22;34369;51.174;6.738;2023-10-09T14:53:48;23.30;52.70
48589;DHT22;34369;51.174;6.738;2023-10-09T14:56:21;23.30;52.40
48589;DHT22;34369;51.174;6.738;2023-10-09T14:59:00;23.20;52.40
48589;DHT22;34369;51.174;6.738;2023-10-09T15:01:32;23.10;52.80
48589;DHT22;34369;51.174;6.738;2023-10-09T15:04:04;23.10;52.50
48589;DHT22;34369;51.174;6.738;2023-10-09T15:06:37;23.10;52.70
48589;DHT22;34369;51.174;6.738;2023-10-09T15:09:09;23.00;52.90
48589;DHT22;34369;51.174;6.738;2023-10-09T15:11:53;23.00;52.70
48589;DHT22;34369;51.174;6.738;2023-10-09T15:14:26;22.90;53.10
48589;DHT22;34369;51.174;6.738;2023-10-09T15:16:57;22.90;52.90
48589;DHT22;34369;51.174;6.738;2023-10-09T15:19:30;22.80;53.00
48589;DHT22;34369;51.174;6.738;2023-10-09T15:22:01;22.80;53.00
48589;DHT22;34369;51.174;6.738;2023-10-09T15:24:39;22.70;53.00
48589;DHT22;34369;51.174;6.738;2023-10-09T15:27:12;22.70;53.20
48589;DHT22;34369;51.174;6.738;2023-10-09T15:29:46;22.50;53.30
48589;DHT22;34369;51.174;6.738;2023-10-09T15:32:19;22.50;53.60
48589;DHT22;34369;51.174;6.738;2023-10-09T15:34:55;22.50;53.70
48589;DHT22;34369;51.174;6.738;2023-10-09T15:37:27;22.40;53.70
48589;DHT22;34369;51.174;6.738;2023-10-09T15:39:59;22.30;54.00
48589;DHT22;34369;51.174;6.738;2023-10-09T15:42:45;22.30;54.10
48589;DHT22;34369;51.174;6.738;2023-10-09T15:45:20;22.30;54.20
48589;DHT22;34369;51.174;6.738;2023-10-09T15:47:51;22.20;54.20
48589;DHT22;34369;51.174;6.738;2023-10-09T15:50:24;22.20;54.70
48589;DHT22;34369;51.174;6.738;2023-10-09T15:52:56;22.20;54.50
48589;DHT22;34369;51.174;6.738;2023-10-09T15:55:28;22.20;54.40
48589;DHT22;34369;51.174;6.738;2023-10-09T15:58:05;22.10;54.50
48589;DHT22;34369;51.174;6.738;2023-10-09T16:00:39;22.10;54.60
48589;DHT22;34369;51.174;6.738;2023-10-09T16:03:11;22.00;54.60
48589;DHT22;34369;51.174;6.738;2023-10-09T16:05:44;22.00;54.80
48589;DHT22;34369;51.174;6.738;2023-10-09T16:08:17;21.90;54.80
48589;DHT22;34369;51.174;6.738;2023-10-09T16:10:53;21.80;55.00
48589;DHT22;34369;51.174;6.738;2023-10-09T16:13:26;21.70;55.10
48589;DHT22;34369;51.174;6.738;2023-10-09T16:15:58;21.60;55.30
48589;DHT22;34369;51.174;6.738;2023-10-09T16:18:31;21.50;55.50
48589;DHT22;34369;51.174;6.738;2023-10-09T16:21:04;21.30;55.60
48589;DHT22;34369;51.174;6.738;2023-10-09T16:23:38;21.20;55.70
48589;DHT22;34369;51.174;6.738;2023-10-09T16:26:12;21.10;56.00
48589;DHT22;34369;51.174;6.738;2023-10-09T16:28:46;21.00;56.20
48589;DHT22;34369;51.174;6.738;2023-10-09T16:31:19;20.90;56.40
48589;DHT22;34369;51.174;6.738;2023-10-09T16:33:50;20.80;56.40
48589;DHT22;34369;51.174;6.738;2023-10-09T16:36:23;20.70;56.60
48589;DHT22;34369;51.174;6.738;2023-10-09T16:38:54;20.50;56.70
48589;DHT22;34369;51.174;6.738;2023-10-09T16:41:30;20.50;56.80
48589;DHT22;34369;51.174;6.738;2023-10-09T16:44:09;20.30;57.00
48589;DHT22;34369;51.174;6.738;2023-10-09T16:46:41;20.20;57.30
48589;DHT22;34369;51.174;6.738;2023-10-09T16:49:15;20.10;57.50